KAID/AID METAR and TAF weather

Enter ICAO airport designator
Station Type Date Time Source
KAID METAR 2021/09/27 06:55 UTC NOAA

KAID 270655Z AUTO 19007KT 10SM CLR 15/08 A3000 RMK AO2 T01540081


Station Type Date Time Source
KAID Decoded METAR 2021/09/27 06:55 UTC NOAA

Anderson Municipal, IN, United States (KAID) 40-07N 085-37W
Sep 27, 2021 - 02:55 AM EDT / 2021.09.27 0655 UTC
Wind: from the S (190 degrees) at 8 MPH (7 KT):0
Visibility: 10 mile(s):0
Sky conditions: clear
Temperature: 59.7 F (15.4 C)
Dew Point: 46.6 F (8.1 C)
Relative Humidity: 61%
Pressure (altimeter): 30 in. Hg (1015 hPa)
ob: KAID 270655Z AUTO 19007KT 10SM CLR 15/08 A3000 RMK AO2 T01540081
cycle: 7

Station Type Date Time Source
KAID TAF UTC NOAA

Error!

Example: see airport list